createdAt,value
2023-09-23T00:00:52.321Z,99000.63
2023-09-23T00:03:21.109Z,99004.13
2023-09-23T00:05:48.820Z,99004.78
2023-09-23T00:08:19.745Z,99003.13
2023-09-23T00:10:47.397Z,99011.13
2023-09-23T00:13:15.490Z,99014.66
2023-09-23T00:15:43.676Z,99020.00
2023-09-23T00:18:12.324Z,99016.47
2023-09-23T00:20:42.239Z,99026.03
2023-09-23T00:23:09.823Z,99024.19
2023-09-23T00:25:38.319Z,99033.03
2023-09-23T00:28:09.528Z,99032.88
2023-09-23T00:30:37.461Z,99028.53
2023-09-23T00:33:05.139Z,99035.72
2023-09-23T00:35:35.596Z,99032.22
2023-09-23T00:38:03.559Z,99036.88
2023-09-23T00:40:33.966Z,99042.41
2023-09-23T00:43:01.720Z,99044.34
2023-09-23T00:45:30.736Z,99042.16
2023-09-23T00:47:58.484Z,99044.47
2023-09-23T00:50:26.102Z,99050.09
2023-09-23T00:52:54.250Z,99057.47
2023-09-23T00:55:22.120Z,99058.31
2023-09-23T00:57:54.182Z,99065.31
2023-09-23T01:00:26.625Z,99071.50
2023-09-23T01:02:57.335Z,99064.31
2023-09-23T01:05:28.689Z,99060.66
2023-09-23T01:07:56.399Z,99061.66
2023-09-23T01:10:24.472Z,99069.53
2023-09-23T01:12:52.289Z,99073.16
2023-09-23T01:15:22.101Z,99063.31
2023-09-23T01:17:51.861Z,99078.50
2023-09-23T01:20:19.482Z,99078.50
2023-09-23T01:22:47.339Z,99080.22
2023-09-23T01:25:14.957Z,99081.19
2023-09-23T01:27:42.896Z,99085.69
2023-09-23T01:30:13.712Z,99085.69
2023-09-23T01:32:41.501Z,99081.34
2023-09-23T01:35:10.671Z,99086.69
2023-09-23T01:37:39.198Z,99086.84
2023-09-23T01:40:07.492Z,99085.47
2023-09-23T01:42:36.785Z,99094.81
2023-09-23T01:45:05.977Z,99096.44
2023-09-23T01:47:33.638Z,99104.91
2023-09-23T01:50:01.623Z,99111.72
2023-09-23T01:52:30.493Z,99112.19
2023-09-23T01:54:58.077Z,99115.28
2023-09-23T01:57:26.098Z,99113.81
2023-09-23T01:59:53.593Z,99123.09
2023-09-23T02:02:21.434Z,99126.22
2023-09-23T02:04:49.763Z,99125.69
2023-09-23T02:07:17.282Z,99130.50
2023-09-23T02:09:44.879Z,99141.50
2023-09-23T02:12:13.844Z,99146.97
2023-09-23T02:14:41.416Z,99148.13
2023-09-23T02:17:09.622Z,99143.91
2023-09-23T02:19:37.521Z,99144.09
2023-09-23T02:22:07.054Z,99150.56
2023-09-23T02:24:34.800Z,99155.22
2023-09-23T02:27:02.371Z,99158.19
2023-09-23T02:29:30.782Z,99159.31
2023-09-23T02:31:58.601Z,99155.97
2023-09-23T02:34:26.149Z,99164.28
2023-09-23T02:36:54.227Z,99168.09
2023-09-23T02:39:21.868Z,99166.56
2023-09-23T02:41:49.769Z,99165.03
2023-09-23T02:44:20.195Z,99172.22
2023-09-23T02:46:47.930Z,99173.16
2023-09-23T02:49:15.631Z,99178.69
2023-09-23T02:51:44.142Z,99174.47
2023-09-23T02:54:12.414Z,99181.78
2023-09-23T02:56:39.925Z,99184.59
2023-09-23T02:59:14.708Z,99193.72
2023-09-23T03:01:46.569Z,99196.41
2023-09-23T03:04:21.105Z,99200.59
2023-09-23T03:06:50.936Z,99192.16
2023-09-23T03:09:18.681Z,99190.88
2023-09-23T03:11:50.495Z,99196.75
2023-09-23T03:14:23.712Z,99196.00
2023-09-23T03:16:52.926Z,99198.34
2023-09-23T03:19:26.132Z,99191.34
2023-09-23T03:21:57.453Z,99196.69
2023-09-23T03:24:27.339Z,99192.06
2023-09-23T03:26:55.400Z,99195.53
2023-09-23T03:29:23.893Z,99196.22
2023-09-23T03:31:51.576Z,99204.78
2023-09-23T03:34:19.159Z,99202.50
2023-09-23T03:36:48.094Z,99212.59
2023-09-23T03:39:16.919Z,99208.31
2023-09-23T03:41:48.004Z,99205.72
2023-09-23T03:44:16.829Z,99211.44
2023-09-23T03:46:44.467Z,99208.47
2023-09-23T03:49:12.605Z,99209.31
2023-09-23T03:51:40.273Z,99211.84
2023-09-23T03:54:07.810Z,99215.19
2023-09-23T03:56:35.710Z,99215.88
2023-09-23T03:59:08.192Z,99220.78
2023-09-23T04:01:37.736Z,99220.44
2023-09-23T04:04:07.689Z,99228.63
2023-09-23T04:06:35.518Z,99230.31
2023-09-23T04:09:03.176Z,99226.78
2023-09-23T04:11:30.872Z,99228.31
2023-09-23T04:13:58.517Z,99233.34
2023-09-23T04:16:27.099Z,99243.44
2023-09-23T04:18:54.729Z,99240.28
2023-09-23T04:21:26.252Z,99243.66
2023-09-23T04:23:54.639Z,99242.81
2023-09-23T04:26:25.549Z,99245.09
2023-09-23T04:28:53.972Z,99239.53
2023-09-23T04:31:25.283Z,99243.22
2023-09-23T04:33:53.608Z,99248.69
2023-09-23T04:36:22.516Z,99250.69
2023-09-23T04:38:50.252Z,99254.50
2023-09-23T04:41:17.788Z,99254.81
2023-09-23T04:43:45.556Z,99259.44
2023-09-23T04:46:16.119Z,99263.44
2023-09-23T04:48:43.999Z,99264.56
2023-09-23T04:51:12.531Z,99264.72
2023-09-23T04:53:40.091Z,99264.16
2023-09-23T04:56:11.455Z,99266.16
2023-09-23T04:58:39.058Z,99269.81
2023-09-23T05:01:07.090Z,99274.72
2023-09-23T05:03:37.955Z,99277.25
2023-09-23T05:06:06.662Z,99287.47
2023-09-23T05:08:34.519Z,99288.16
2023-09-23T05:11:02.749Z,99289.00
2023-09-23T05:13:31.367Z,99295.84
2023-09-23T05:15:59.489Z,99308.75
2023-09-23T05:18:27.093Z,99299.47
2023-09-23T05:20:54.811Z,99308.16
2023-09-23T05:23:24.430Z,99306.88
2023-09-23T05:25:52.114Z,99312.91
2023-09-23T05:28:21.168Z,99313.59
2023-09-23T05:30:48.762Z,99323.00
2023-09-23T05:33:16.346Z,99336.22
2023-09-23T05:35:43.925Z,99334.91
2023-09-23T05:38:13.395Z,99349.50
2023-09-23T05:40:41.966Z,99358.06
2023-09-23T05:43:12.685Z,99356.78
2023-09-23T05:45:40.273Z,99368.69
2023-09-23T05:48:07.913Z,99366.72
2023-09-23T05:50:36.577Z,99362.91
2023-09-23T05:53:04.292Z,99380.31
2023-09-23T05:55:33.145Z,99381.00
2023-09-23T05:58:01.023Z,99381.69
2023-09-23T06:00:28.596Z,99393.91
2023-09-23T06:02:56.226Z,99398.13
2023-09-23T06:05:25.720Z,99402.34
2023-09-23T06:07:55.630Z,99412.56
2023-09-23T06:10:23.257Z,99411.56
2023-09-23T06:12:51.354Z,99421.13
2023-09-23T06:15:18.958Z,99417.13
2023-09-23T06:17:47.413Z,99425.88
2023-09-23T06:20:15.103Z,99426.56
2023-09-23T06:22:42.767Z,99431.75
2023-09-23T06:25:10.305Z,99427.09
2023-09-23T06:27:38.165Z,99424.94
2023-09-23T06:30:05.715Z,99431.97
2023-09-23T06:32:33.265Z,99439.31
2023-09-23T06:35:00.926Z,99436.13
2023-09-23T06:37:28.519Z,99441.59
2023-09-23T06:39:56.106Z,99439.94
2023-09-23T06:42:23.711Z,99453.00
2023-09-23T06:44:51.274Z,99457.88
2023-09-23T06:47:18.980Z,99453.59
2023-09-23T06:49:46.646Z,99460.88
2023-09-23T06:52:14.287Z,99468.31
2023-09-23T06:54:41.880Z,99478.06
2023-09-23T06:57:10.270Z,99483.97
2023-09-23T06:59:37.837Z,99486.19
2023-09-23T07:02:05.613Z,99488.53
2023-09-23T07:04:33.393Z,99490.22
2023-09-23T07:07:01.107Z,99503.13
2023-09-23T07:09:29.472Z,99506.19
2023-09-23T07:11:57.157Z,99505.06
2023-09-23T07:14:24.888Z,99524.47
2023-09-23T07:16:52.699Z,99514.44
2023-09-23T07:19:20.860Z,99513.63
2023-09-23T07:21:48.529Z,99522.72
2023-09-23T07:24:16.118Z,99525.88
2023-09-23T07:26:43.717Z,99531.97
2023-09-23T07:29:11.417Z,99525.13
2023-09-23T07:31:39.110Z,99528.03
2023-09-23T07:34:06.783Z,99533.47
2023-09-23T07:36:34.423Z,99536.88
2023-09-23T07:39:02.090Z,99537.59
2023-09-23T07:41:30.328Z,99540.94
2023-09-23T07:43:58.343Z,99545.28
2023-09-23T07:46:26.157Z,99558.22
2023-09-23T07:48:53.815Z,99556.38
2023-09-23T07:51:21.451Z,99569.47
2023-09-23T07:53:49.111Z,99558.41
2023-09-23T07:56:16.810Z,99557.94
2023-09-23T07:58:44.467Z,99560.81
2023-09-23T08:01:12.150Z,99560.56
2023-09-23T08:03:39.928Z,99563.31
2023-09-23T08:06:07.595Z,99578.41
2023-09-23T08:08:35.618Z,99578.41
2023-09-23T08:11:04.289Z,99574.56
2023-09-23T08:13:32.256Z,99582.06
2023-09-23T08:16:00.044Z,99595.28
2023-09-23T08:18:27.870Z,99595.47
2023-09-23T08:20:55.659Z,99602.91
2023-09-23T08:23:23.824Z,99591.75
2023-09-23T08:25:51.706Z,99599.03
2023-09-23T08:28:19.394Z,99606.75
2023-09-23T08:30:50.125Z,99606.78
2023-09-23T08:33:19.236Z,99613.31
2023-09-23T08:35:46.962Z,99614.16
2023-09-23T08:38:14.664Z,99617.66
2023-09-23T08:40:42.377Z,99618.50
2023-09-23T08:43:10.027Z,99624.56
2023-09-23T08:45:39.124Z,99619.53
2023-09-23T08:48:06.965Z,99626.44
2023-09-23T08:50:34.644Z,99623.56
2023-09-23T08:53:02.292Z,99627.63
2023-09-23T08:55:30.005Z,99628.69
2023-09-23T08:58:03.215Z,99630.53
2023-09-23T09:00:32.129Z,99634.72
2023-09-23T09:02:59.813Z,99636.03
2023-09-23T09:05:27.654Z,99635.69
2023-09-23T09:07:55.888Z,99644.03
2023-09-23T09:10:26.815Z,99652.75
2023-09-23T09:12:56.465Z,99655.09
2023-09-23T09:15:27.776Z,99643.06
2023-09-23T09:17:55.482Z,99648.44
2023-09-23T09:20:23.343Z,99646.78
2023-09-23T09:22:51.761Z,99642.06
2023-09-23T09:25:22.110Z,99644.41
2023-09-23T09:27:49.866Z,99647.44
2023-09-23T09:30:18.043Z,99649.28
2023-09-23T09:32:46.241Z,99671.94
2023-09-23T09:35:13.931Z,99658.19
2023-09-23T09:37:41.818Z,99652.81
2023-09-23T09:40:10.428Z,99665.16
2023-09-23T09:42:38.270Z,99660.78
2023-09-23T09:45:06.719Z,99666.03
2023-09-23T09:47:34.574Z,99674.25
2023-09-23T09:50:04.936Z,99671.41
2023-09-23T09:52:32.728Z,99682.16
2023-09-23T09:55:00.666Z,99678.78
2023-09-23T09:57:30.498Z,99673.56
2023-09-23T09:59:58.229Z,99682.81
2023-09-23T10:02:26.107Z,99682.63
2023-09-23T10:04:55.018Z,99681.34
2023-09-23T10:07:24.643Z,99680.38
2023-09-23T10:09:55.162Z,99677.84
2023-09-23T10:12:26.306Z,99682.13
2023-09-23T10:14:54.111Z,99676.50
2023-09-23T10:17:21.913Z,99682.66
2023-09-23T10:19:50.601Z,99678.69
2023-09-23T10:22:21.831Z,99674.72
2023-09-23T10:24:49.987Z,99675.13
2023-09-23T10:27:18.568Z,99683.25
2023-09-23T10:29:47.007Z,99680.59
2023-09-23T10:32:16.422Z,99685.19
2023-09-23T10:37:12.919Z,99701.09
2023-09-23T10:39:40.565Z,99693.34
2023-09-23T10:42:08.321Z,99707.94
2023-09-23T10:44:36.096Z,99706.91
2023-09-23T10:47:03.746Z,99698.97
2023-09-23T10:49:31.457Z,99701.03
2023-09-23T10:51:59.180Z,99711.84
2023-09-23T10:54:27.262Z,99724.72
2023-09-23T10:56:55.094Z,99722.06
2023-09-23T10:59:22.803Z,99727.44
2023-09-23T11:01:51.065Z,99724.28
2023-09-23T11:04:20.130Z,99716.34
2023-09-23T11:06:47.833Z,99719.84
2023-09-23T11:09:15.882Z,99725.47
2023-09-23T11:11:43.958Z,99731.28
2023-09-23T11:14:11.634Z,99732.34
2023-09-23T11:16:39.636Z,99740.28
2023-09-23T11:19:07.502Z,99741.31
2023-09-23T11:21:35.293Z,99741.47
2023-09-23T11:24:05.900Z,99746.63
2023-09-23T11:26:34.823Z,99740.69
2023-09-23T11:29:02.569Z,99743.66
2023-09-23T11:31:30.298Z,99744.50
2023-09-23T11:33:58.256Z,99743.63
2023-09-23T11:36:27.041Z,99746.50
2023-09-23T11:38:55.366Z,99747.31
2023-09-23T11:41:23.245Z,99751.16
2023-09-23T11:43:51.812Z,99756.09
2023-09-23T11:46:22.271Z,99749.69
2023-09-23T11:48:50.663Z,99753.16
2023-09-23T11:51:19.467Z,99753.38
2023-09-23T11:53:47.270Z,99752.19
2023-09-23T11:56:16.968Z,99752.97
2023-09-23T11:58:54.552Z,99767.09
2023-09-23T12:01:29.848Z,99761.44
2023-09-23T12:03:59.781Z,99765.72
2023-09-23T12:06:27.619Z,99754.31
2023-09-23T12:08:55.536Z,99761.59
2023-09-23T12:11:23.402Z,99761.56
2023-09-23T12:13:53.605Z,99769.78
2023-09-23T12:16:21.433Z,99768.84
2023-09-23T12:18:49.903Z,99768.81
2023-09-23T12:21:18.042Z,99767.78
2023-09-23T12:23:45.823Z,99768.88
2023-09-23T12:26:16.603Z,99776.41
2023-09-23T12:28:45.899Z,99779.31
2023-09-23T12:31:16.926Z,99782.66
2023-09-23T12:33:44.656Z,99788.94
2023-09-23T12:36:13.162Z,99788.03
2023-09-23T12:38:40.921Z,99789.59
2023-09-23T12:41:08.607Z,99793.00
2023-09-23T12:43:39.644Z,99804.16
2023-09-23T12:46:07.339Z,99802.69
2023-09-23T12:48:35.053Z,99809.50
2023-09-23T12:51:02.808Z,99824.50
2023-09-23T12:53:31.383Z,99831.59
2023-09-23T12:55:59.094Z,99836.19
2023-09-23T12:58:26.846Z,99830.34
2023-09-23T13:00:54.615Z,99841.03
2023-09-23T13:03:22.595Z,99836.66
2023-09-23T13:05:50.521Z,99838.25
2023-09-23T13:08:18.272Z,99836.25
2023-09-23T13:10:45.967Z,99830.22
2023-09-23T13:13:13.673Z,99842.25
2023-09-23T13:15:42.307Z,99835.94
2023-09-23T13:18:10.960Z,99846.97
2023-09-23T13:20:38.903Z,99835.34
2023-09-23T13:23:08.913Z,99841.22
2023-09-23T13:25:36.891Z,99853.25
2023-09-23T13:28:04.892Z,99855.38
2023-09-23T13:30:32.594Z,99860.06
2023-09-23T13:33:00.363Z,99861.47
2023-09-23T13:35:28.218Z,99859.53
2023-09-23T13:37:55.905Z,99869.50
2023-09-23T13:40:23.585Z,99865.66
2023-09-23T13:42:51.734Z,99872.09
2023-09-23T13:45:19.650Z,99876.69
2023-09-23T13:47:47.725Z,99877.94
2023-09-23T13:50:15.992Z,99882.22
2023-09-23T13:52:43.871Z,99883.38
2023-09-23T13:55:12.068Z,99878.16
2023-09-23T13:57:39.863Z,99885.50
2023-09-23T14:00:09.363Z,99877.31
2023-09-23T14:02:37.175Z,99886.16
2023-09-23T14:05:06.053Z,99885.06
2023-09-23T14:07:34.153Z,99887.88
2023-09-23T14:10:14.783Z,99891.13
2023-09-23T14:12:48.927Z,99890.56
2023-09-23T14:15:16.663Z,99887.75
2023-09-23T14:17:44.521Z,99893.50
2023-09-23T14:20:14.413Z,99903.38
2023-09-23T14:22:45.071Z,99899.84
2023-09-23T14:25:12.813Z,99900.97
2023-09-23T14:27:40.660Z,99909.16
2023-09-23T14:30:09.627Z,99911.38
2023-09-23T14:32:37.425Z,99906.84
2023-09-23T14:35:05.224Z,99907.38
2023-09-23T14:37:33.031Z,99914.97
2023-09-23T14:40:01.597Z,99915.16
2023-09-23T14:42:29.757Z,99917.34
2023-09-23T14:44:57.422Z,99916.81
2023-09-23T14:47:25.417Z,99922.00
2023-09-23T14:49:53.573Z,99909.88
2023-09-23T14:52:21.522Z,99917.06
2023-09-23T14:54:49.592Z,99915.09
2023-09-23T14:57:17.722Z,99918.00
2023-09-23T14:59:45.452Z,99914.28
2023-09-23T15:02:13.394Z,99920.97
2023-09-23T15:04:41.405Z,99921.13
2023-09-23T15:07:09.181Z,99929.03
2023-09-23T15:09:36.966Z,99934.84
2023-09-23T15:12:04.803Z,99936.41
2023-09-23T15:14:32.547Z,99945.84
2023-09-23T15:17:00.568Z,99945.69
2023-09-23T15:19:28.411Z,99951.59
2023-09-23T15:21:56.427Z,99962.69
2023-09-23T15:24:24.318Z,99970.25
2023-09-23T15:26:52.220Z,99968.56
2023-09-23T15:29:20.278Z,99979.16
2023-09-23T15:31:48.259Z,99968.41
2023-09-23T15:34:16.285Z,99971.97
2023-09-23T15:36:44.112Z,99968.09
2023-09-23T15:39:12.228Z,99977.19
2023-09-23T15:41:40.782Z,99966.59
2023-09-23T15:44:08.511Z,99982.25
2023-09-23T15:46:36.827Z,99988.81
2023-09-23T15:49:04.605Z,99987.63
2023-09-23T15:51:32.709Z,99988.94
2023-09-23T15:54:00.436Z,99991.78
2023-09-23T15:56:28.255Z,100002.53
2023-09-23T15:58:55.913Z,100008.56
2023-09-23T16:01:24.013Z,100011.19
2023-09-23T16:03:51.979Z,100015.53
2023-09-23T16:06:19.899Z,100019.06
2023-09-23T16:08:47.928Z,100016.84
2023-09-23T16:11:15.895Z,100017.66
2023-09-23T16:13:43.770Z,100021.69
2023-09-23T16:16:11.827Z,100032.94
2023-09-23T16:18:39.783Z,100037.25
2023-09-23T16:21:07.592Z,100037.88
2023-09-23T16:23:35.983Z,100046.59
2023-09-23T16:26:03.780Z,100044.84
2023-09-23T16:28:31.599Z,100049.28
2023-09-23T16:31:00.051Z,100056.22
2023-09-23T16:33:28.835Z,100057.25
2023-09-23T16:35:56.603Z,100056.19
2023-09-23T16:38:24.361Z,100059.19
2023-09-23T16:40:52.186Z,100059.19
2023-09-23T16:43:20.253Z,100065.25
2023-09-23T16:45:51.085Z,100059.72
2023-09-23T16:48:19.018Z,100072.03
2023-09-23T16:50:47.412Z,100069.00
2023-09-23T16:53:15.395Z,100073.25
2023-09-23T16:55:44.321Z,100082.84
2023-09-23T16:58:12.908Z,100080.16
2023-09-23T17:00:44.310Z,100089.91
2023-09-23T17:03:12.487Z,100086.34
2023-09-23T17:05:40.299Z,100097.97
2023-09-23T17:08:08.869Z,100093.59
2023-09-23T17:10:36.808Z,100095.28
2023-09-23T17:13:04.572Z,100108.03
2023-09-23T17:15:32.262Z,100111.72
2023-09-23T17:18:01.968Z,100117.94
2023-09-23T17:20:31.124Z,100121.63
2023-09-23T17:22:58.827Z,100128.13
2023-09-23T17:25:27.153Z,100137.53
2023-09-23T17:27:55.112Z,100137.97
2023-09-23T17:30:23.470Z,100146.47
2023-09-23T17:32:52.113Z,100148.78
2023-09-23T17:35:20.663Z,100150.94
2023-09-23T17:37:48.469Z,100156.91
2023-09-23T17:40:16.577Z,100158.03
2023-09-23T17:42:44.397Z,100164.72
2023-09-23T17:45:12.180Z,100169.38
2023-09-23T17:47:39.993Z,100171.53
2023-09-23T17:50:07.904Z,100178.91
2023-09-23T17:52:36.245Z,100188.81
2023-09-23T17:55:04.380Z,100181.03
2023-09-23T17:57:34.194Z,100186.72
2023-09-23T18:00:01.932Z,100187.84
2023-09-23T18:02:29.953Z,100195.06
2023-09-23T18:04:57.907Z,100191.69
2023-09-23T18:07:25.827Z,100189.31
2023-09-23T18:09:53.609Z,100207.25
2023-09-23T18:12:21.480Z,100208.38
2023-09-23T18:14:50.057Z,100213.75
2023-09-23T18:17:17.987Z,100208.53
2023-09-23T18:19:45.908Z,100219.28
2023-09-23T18:22:14.687Z,100213.19
2023-09-23T18:24:49.861Z,100216.88
2023-09-23T18:27:18.406Z,100220.69
2023-09-23T18:29:47.563Z,100224.38
2023-09-23T18:32:16.969Z,100232.44
2023-09-23T18:34:44.919Z,100237.09
2023-09-23T18:37:12.792Z,100239.09
2023-09-23T18:39:40.656Z,100252.53
2023-09-23T18:42:08.477Z,100248.16
2023-09-23T18:44:38.242Z,100249.13
2023-09-23T18:47:08.865Z,100256.34
2023-09-23T18:49:36.773Z,100265.38
2023-09-23T18:52:04.576Z,100261.00
2023-09-23T18:54:33.192Z,100265.53
2023-09-23T18:57:01.431Z,100267.34
2023-09-23T18:59:29.674Z,100278.09
2023-09-23T19:01:57.741Z,100278.09
2023-09-23T19:04:25.565Z,100271.88
2023-09-23T19:06:53.328Z,100290.69
2023-09-23T19:09:22.912Z,100283.63
2023-09-23T19:11:50.800Z,100289.00
2023-09-23T19:14:20.092Z,100297.88
2023-09-23T19:16:48.054Z,100298.03
2023-09-23T19:19:19.254Z,100298.03
2023-09-23T19:21:46.987Z,100305.34
2023-09-23T19:24:19.488Z,100318.09
2023-09-23T19:26:56.601Z,100313.72
2023-09-23T19:29:27.766Z,100317.53
2023-09-23T19:32:00.431Z,100321.19
2023-09-23T19:34:28.483Z,100321.34
2023-09-23T19:36:58.606Z,100331.38
2023-09-23T19:39:28.167Z,100329.69
2023-09-23T19:41:56.158Z,100318.25
2023-09-23T19:44:25.079Z,100328.22
2023-09-23T19:46:53.203Z,100329.53
2023-09-23T19:49:21.084Z,100333.75
2023-09-23T19:51:49.437Z,100342.66
2023-09-23T19:54:17.580Z,100339.09
2023-09-23T19:56:46.029Z,100344.31
2023-09-23T19:59:13.923Z,100343.91
2023-09-23T20:01:42.808Z,100349.41
2023-09-23T20:04:11.132Z,100352.38
2023-09-23T20:06:38.955Z,100353.22
2023-09-23T20:09:07.898Z,100347.97
2023-09-23T20:11:35.772Z,100359.84
2023-09-23T20:14:03.409Z,100363.66
2023-09-23T20:16:33.279Z,100364.75
2023-09-23T20:19:03.021Z,100370.41
2023-09-23T20:21:31.803Z,100366.88
2023-09-23T20:24:00.055Z,100364.31
2023-09-23T20:26:28.886Z,100367.28
2023-09-23T20:28:56.651Z,100372.94
2023-09-23T20:31:24.531Z,100381.94
2023-09-23T20:33:52.519Z,100379.25
2023-09-23T20:36:25.398Z,100382.81
2023-09-23T20:38:54.200Z,100381.94
2023-09-23T20:41:22.073Z,100380.97
2023-09-23T20:43:51.300Z,100387.03
2023-09-23T20:46:21.172Z,100380.00
2023-09-23T20:48:48.981Z,100384.38
2023-09-23T20:51:17.820Z,100389.44
2023-09-23T20:53:46.279Z,100393.09
2023-09-23T20:56:14.724Z,100400.16
2023-09-23T20:58:43.827Z,100397.47
2023-09-23T21:01:11.559Z,100400.88
2023-09-23T21:03:39.405Z,100406.22
2023-09-23T21:06:08.218Z,100409.66
2023-09-23T21:08:36.342Z,100415.72
2023-09-23T21:11:04.034Z,100418.25
2023-09-23T21:13:31.811Z,100419.09
2023-09-23T21:16:00.351Z,100425.03
2023-09-23T21:18:31.028Z,100435.63
2023-09-23T21:20:58.857Z,100427.47
2023-09-23T21:23:30.574Z,100426.31
2023-09-23T21:25:58.424Z,100435.22
2023-09-23T21:28:26.627Z,100436.78
2023-09-23T21:30:54.884Z,100437.59
2023-09-23T21:33:22.689Z,100435.66
2023-09-23T21:35:50.849Z,100439.34
2023-09-23T21:38:18.820Z,100444.69
2023-09-23T21:40:46.504Z,100445.53
2023-09-23T21:43:14.288Z,100453.44
2023-09-23T21:45:42.156Z,100443.56
2023-09-23T21:48:11.321Z,100451.34
2023-09-23T21:50:39.068Z,100448.66
2023-09-23T21:53:07.246Z,100458.41
2023-09-23T21:55:34.941Z,100454.03
2023-09-23T21:58:02.629Z,100455.97
2023-09-23T22:00:30.934Z,100457.13
2023-09-23T22:02:59.019Z,100454.84
2023-09-23T22:05:26.983Z,100454.28
2023-09-23T22:07:54.810Z,100459.75
2023-09-23T22:10:22.576Z,100456.38
2023-09-23T22:12:50.782Z,100459.75
2023-09-23T22:15:18.925Z,100479.25
2023-09-23T22:17:46.851Z,100483.34
2023-09-23T22:20:16.555Z,100487.72
2023-09-23T22:22:44.726Z,100485.75
2023-09-23T22:25:16.403Z,100485.63
2023-09-23T22:27:46.726Z,100483.66
2023-09-23T22:30:18.339Z,100487.19
2023-09-23T22:32:46.452Z,100489.00
2023-09-23T22:35:15.220Z,100484.50
2023-09-23T22:37:42.938Z,100467.56
2023-09-23T22:40:15.117Z,100476.59
2023-09-23T22:42:45.101Z,100485.88
2023-09-23T22:45:23.646Z,100484.34
2023-09-23T22:48:00.634Z,100483.91
2023-09-23T22:50:29.050Z,100485.28
2023-09-23T22:52:57.394Z,100487.53
2023-09-23T22:55:25.922Z,100490.72
2023-09-23T22:57:53.959Z,100496.63
2023-09-23T23:00:26.961Z,100492.53
2023-09-23T23:02:55.594Z,100496.00
2023-09-23T23:05:26.361Z,100501.91
2023-09-23T23:07:54.401Z,100508.63
2023-09-23T23:10:22.001Z,100504.78
2023-09-23T23:12:49.612Z,100508.69
2023-09-23T23:15:17.328Z,100505.56
2023-09-23T23:17:45.877Z,100514.81
2023-09-23T23:20:16.104Z,100512.53
2023-09-23T23:22:44.661Z,100522.66
2023-09-23T23:25:12.439Z,100516.81
2023-09-23T23:27:40.857Z,100522.44
2023-09-23T23:30:09.424Z,100531.69
2023-09-23T23:32:39.285Z,100529.56
2023-09-23T23:35:06.892Z,100538.81
2023-09-23T23:37:36.885Z,100544.66
2023-09-23T23:40:05.848Z,100544.06
2023-09-23T23:42:35.190Z,100547.13
2023-09-23T23:45:03.234Z,100550.91
2023-09-23T23:47:30.849Z,100548.38
2023-09-23T23:49:59.882Z,100556.66
2023-09-23T23:52:30.089Z,100553.25
2023-09-23T23:54:58.198Z,100550.97
2023-09-23T23:57:26.421Z,100566.31
2023-09-23T23:59:54.659Z,100557.69
